createdAt,value
2022-11-30T00:00:09.717Z,33.80
2022-11-30T00:00:41.098Z,33.98
2022-11-30T00:01:13.281Z,33.96
2022-11-30T00:01:44.598Z,33.97
2022-11-30T00:02:16.109Z,33.77
2022-11-30T00:02:47.706Z,33.72
2022-11-30T00:03:19.226Z,34.12
2022-11-30T00:03:53.973Z,34.21
2022-11-30T00:04:25.358Z,34.02
2022-11-30T00:04:56.744Z,33.98
2022-11-30T00:05:28.137Z,34.16
2022-11-30T00:06:03.596Z,33.93
2022-11-30T00:06:34.957Z,33.92
2022-11-30T00:07:06.329Z,34.20
2022-11-30T00:07:37.756Z,34.03
2022-11-30T00:08:09.169Z,34.01
2022-11-30T00:08:40.547Z,33.95
2022-11-30T00:09:11.848Z,34.06
2022-11-30T00:09:43.199Z,34.12
2022-11-30T00:10:14.615Z,33.97
2022-11-30T00:10:46.074Z,33.80
2022-11-30T00:11:17.683Z,33.91
2022-11-30T00:11:49.078Z,33.67
2022-11-30T00:12:20.467Z,33.91
2022-11-30T00:12:51.888Z,34.03
2022-11-30T00:13:23.306Z,33.95
2022-11-30T00:13:54.743Z,33.74
2022-11-30T00:14:26.159Z,34.06
2022-11-30T00:14:57.592Z,33.65
2022-11-30T00:15:28.973Z,33.90
2022-11-30T00:16:00.810Z,33.64
2022-11-30T00:16:32.174Z,33.67
2022-11-30T00:17:03.640Z,33.96
2022-11-30T00:17:34.992Z,33.85
2022-11-30T00:18:06.375Z,34.07
2022-11-30T00:18:37.764Z,34.04
2022-11-30T00:19:09.204Z,34.04
2022-11-30T00:19:40.597Z,34.09
2022-11-30T00:20:12.447Z,33.97
2022-11-30T00:20:44.200Z,33.67
2022-11-30T00:21:15.547Z,33.93
2022-11-30T00:21:46.937Z,33.77
2022-11-30T00:22:18.334Z,33.89
2022-11-30T00:22:49.778Z,34.01
2022-11-30T00:23:21.285Z,33.64
2022-11-30T00:23:52.660Z,33.91
2022-11-30T00:24:24.047Z,33.83
2022-11-30T00:24:55.488Z,33.84
2022-11-30T00:25:26.833Z,33.88
2022-11-30T00:26:00.124Z,33.91
2022-11-30T00:26:31.555Z,34.04
2022-11-30T00:27:03.180Z,33.63
2022-11-30T00:27:34.616Z,34.01
2022-11-30T00:28:06.022Z,34.05
2022-11-30T00:28:37.480Z,34.07
2022-11-30T00:29:08.830Z,33.91
2022-11-30T00:29:40.210Z,34.05
2022-11-30T00:30:11.927Z,34.00
2022-11-30T00:30:43.298Z,33.79
2022-11-30T00:31:15.610Z,33.85
2022-11-30T00:31:46.996Z,33.68
2022-11-30T00:32:18.387Z,33.89
2022-11-30T00:32:49.758Z,33.63
2022-11-30T00:33:21.126Z,33.99
2022-11-30T00:33:52.455Z,33.73
2022-11-30T00:34:23.783Z,33.96
2022-11-30T00:34:55.122Z,33.87
2022-11-30T00:35:26.522Z,33.92
2022-11-30T00:36:00.802Z,34.06
2022-11-30T00:36:32.145Z,33.90
2022-11-30T00:37:03.583Z,33.70
2022-11-30T00:37:35.395Z,33.60
2022-11-30T00:38:06.769Z,33.71
2022-11-30T00:38:38.199Z,33.88
2022-11-30T00:39:09.547Z,33.73
2022-11-30T00:39:40.920Z,33.98
2022-11-30T00:40:12.538Z,33.80
2022-11-30T00:40:43.924Z,33.96
2022-11-30T00:41:15.611Z,33.64
2022-11-30T00:41:46.972Z,33.62
2022-11-30T00:42:18.325Z,33.80
2022-11-30T00:42:49.783Z,34.01
2022-11-30T00:43:21.235Z,33.86
2022-11-30T00:43:52.612Z,33.90
2022-11-30T00:44:23.951Z,33.71
2022-11-30T00:44:55.321Z,33.66
2022-11-30T00:45:26.783Z,33.81
2022-11-30T00:45:58.169Z,33.80
2022-11-30T00:46:29.625Z,33.65
2022-11-30T00:47:00.989Z,33.71
2022-11-30T00:47:32.382Z,33.92
2022-11-30T00:48:03.868Z,34.23
2022-11-30T00:48:35.559Z,34.11
2022-11-30T00:49:06.943Z,34.18
2022-11-30T00:49:38.259Z,34.10
2022-11-30T00:50:09.834Z,34.35
2022-11-30T00:50:41.437Z,34.24
2022-11-30T00:51:12.827Z,34.45
2022-11-30T00:51:44.198Z,33.84
2022-11-30T00:52:15.639Z,33.90
2022-11-30T00:52:47.052Z,33.86
2022-11-30T00:53:18.498Z,33.65
2022-11-30T00:53:49.901Z,33.57
2022-11-30T00:54:21.330Z,33.69
2022-11-30T00:54:52.718Z,33.57
2022-11-30T00:55:24.079Z,33.62
2022-11-30T00:55:55.440Z,33.79
2022-11-30T00:56:26.842Z,33.75
2022-11-30T00:56:58.271Z,33.68
2022-11-30T00:57:29.641Z,33.61
2022-11-30T00:58:01.135Z,33.86
2022-11-30T00:58:32.548Z,33.70
2022-11-30T00:59:03.992Z,33.67
2022-11-30T00:59:35.336Z,33.47
2022-11-30T01:00:07.059Z,33.77
2022-11-30T01:00:38.413Z,33.78
2022-11-30T01:01:09.843Z,33.87
2022-11-30T01:01:41.299Z,33.80
2022-11-30T01:02:12.713Z,33.70
2022-11-30T01:02:44.195Z,33.77
2022-11-30T01:03:15.638Z,33.65
2022-11-30T01:03:47.034Z,33.43
2022-11-30T01:04:18.369Z,33.77
2022-11-30T01:04:49.772Z,33.63
2022-11-30T01:05:21.146Z,33.56
2022-11-30T01:05:52.486Z,33.69
2022-11-30T01:06:23.938Z,33.71
2022-11-30T01:06:55.260Z,33.52
2022-11-30T01:07:26.694Z,33.45
2022-11-30T01:07:59.548Z,33.93
2022-11-30T01:08:31.007Z,33.84
2022-11-30T01:09:02.431Z,33.70
2022-11-30T01:09:33.810Z,34.04
2022-11-30T01:10:05.516Z,33.63
2022-11-30T01:10:38.028Z,33.78
2022-11-30T01:11:13.338Z,33.84
2022-11-30T01:11:44.771Z,33.69
2022-11-30T01:12:16.138Z,33.61
2022-11-30T01:12:47.539Z,33.76
2022-11-30T01:13:18.966Z,34.28
2022-11-30T01:13:50.424Z,34.42
2022-11-30T01:14:21.743Z,34.30
2022-11-30T01:14:53.148Z,34.14
2022-11-30T01:15:24.570Z,33.94
2022-11-30T01:15:55.954Z,33.85
2022-11-30T01:16:28.480Z,33.63
2022-11-30T01:16:59.865Z,33.95
2022-11-30T01:17:31.259Z,33.73
2022-11-30T01:18:02.632Z,33.94
2022-11-30T01:18:35.812Z,33.63
2022-11-30T01:19:07.171Z,33.82
2022-11-30T01:19:38.502Z,33.80
2022-11-30T01:20:10.023Z,33.92
2022-11-30T01:20:41.785Z,33.70
2022-11-30T01:21:13.887Z,33.86
2022-11-30T01:21:45.244Z,33.75
2022-11-30T01:22:16.637Z,33.63
2022-11-30T01:22:48.128Z,33.70
2022-11-30T01:23:19.482Z,33.87
2022-11-30T01:23:51.038Z,33.74
2022-11-30T01:24:22.416Z,33.83
2022-11-30T01:24:53.758Z,33.56
2022-11-30T01:25:25.221Z,33.47
2022-11-30T01:25:56.673Z,33.57
2022-11-30T01:26:28.152Z,33.57
2022-11-30T01:26:59.491Z,33.70
2022-11-30T01:27:30.918Z,33.77
2022-11-30T01:28:02.396Z,33.75
2022-11-30T01:28:33.812Z,33.64
2022-11-30T01:29:05.192Z,33.79
2022-11-30T01:29:36.581Z,33.78
2022-11-30T01:30:08.101Z,33.56
2022-11-30T01:30:39.524Z,33.60
2022-11-30T01:31:12.140Z,33.58
2022-11-30T01:31:43.499Z,33.81
2022-11-30T01:32:14.814Z,33.72
2022-11-30T01:32:46.208Z,33.73
2022-11-30T01:33:17.567Z,33.86
2022-11-30T01:33:49.638Z,33.82
2022-11-30T01:34:20.975Z,33.44
2022-11-30T01:34:52.308Z,33.64
2022-11-30T01:35:23.585Z,33.61
2022-11-30T01:36:07.697Z,33.63
2022-11-30T01:36:39.062Z,33.92
2022-11-30T01:37:10.518Z,33.54
2022-11-30T01:37:41.893Z,33.59
2022-11-30T01:38:13.257Z,33.50
2022-11-30T01:38:50.435Z,33.58
2022-11-30T01:39:21.775Z,33.40
2022-11-30T01:39:53.078Z,33.86
2022-11-30T01:40:24.425Z,33.61
2022-11-30T01:40:55.837Z,33.52
2022-11-30T01:41:28.005Z,33.55
2022-11-30T01:41:59.379Z,33.83
2022-11-30T01:42:30.681Z,33.45
2022-11-30T01:43:01.980Z,33.55
2022-11-30T01:43:43.570Z,33.44
2022-11-30T01:44:19.553Z,33.56
2022-11-30T01:44:57.937Z,33.49
2022-11-30T01:45:29.263Z,33.56
2022-11-30T01:46:00.759Z,33.74
2022-11-30T01:46:52.417Z,33.53
2022-11-30T01:47:56.226Z,33.58
2022-11-30T01:48:27.592Z,33.71
2022-11-30T01:49:25.020Z,33.47
2022-11-30T01:49:58.191Z,33.74
2022-11-30T01:50:30.648Z,33.45
2022-11-30T01:51:02.014Z,33.60
2022-11-30T01:51:36.700Z,33.39
2022-11-30T01:52:09.382Z,33.50
2022-11-30T01:52:43.728Z,33.65
2022-11-30T01:53:15.042Z,33.65
2022-11-30T01:53:46.349Z,33.73
2022-11-30T01:54:18.998Z,33.74
2022-11-30T01:54:52.004Z,33.50
2022-11-30T01:55:33.752Z,33.55
2022-11-30T01:56:05.393Z,33.82
2022-11-30T01:56:37.564Z,33.45
2022-11-30T01:57:21.269Z,33.60
2022-11-30T01:57:54.694Z,33.63
2022-11-30T01:58:26.683Z,33.69
2022-11-30T01:58:58.110Z,33.38
2022-11-30T01:59:29.586Z,33.63
2022-11-30T02:00:01.097Z,33.54
2022-11-30T02:00:32.580Z,33.67
2022-11-30T02:01:04.059Z,33.35
2022-11-30T02:01:35.539Z,33.57
2022-11-30T02:02:07.083Z,33.63
2022-11-30T02:02:47.606Z,33.43
2022-11-30T02:03:26.380Z,33.47
2022-11-30T02:04:16.201Z,33.60
2022-11-30T02:04:48.014Z,33.45
2022-11-30T02:05:19.700Z,33.47
2022-11-30T02:05:51.122Z,33.56
2022-11-30T02:06:22.615Z,33.58
2022-11-30T02:06:54.054Z,33.41
2022-11-30T02:07:25.583Z,33.83
2022-11-30T02:07:57.146Z,33.42
2022-11-30T02:08:28.712Z,33.34
2022-11-30T02:09:00.122Z,33.57
2022-11-30T02:09:31.569Z,33.62
2022-11-30T02:10:02.973Z,33.83
2022-11-30T02:10:41.372Z,33.48
2022-11-30T02:11:13.040Z,33.42
2022-11-30T02:11:44.502Z,33.91
2022-11-30T02:12:19.838Z,33.69
2022-11-30T02:12:51.170Z,33.69
2022-11-30T02:13:40.555Z,33.58
2022-11-30T02:14:15.854Z,33.71
2022-11-30T02:14:48.323Z,33.51
2022-11-30T02:15:21.191Z,33.38
2022-11-30T02:16:01.796Z,33.59
2022-11-30T02:16:52.176Z,33.62
2022-11-30T02:17:46.491Z,33.61
2022-11-30T02:18:20.041Z,33.59
2022-11-30T02:18:51.369Z,33.47
2022-11-30T02:19:31.640Z,33.78
2022-11-30T02:20:13.687Z,33.76
2022-11-30T02:20:44.945Z,33.81
2022-11-30T02:21:16.399Z,33.67
2022-11-30T02:21:50.577Z,33.64
2022-11-30T02:22:34.072Z,33.49
2022-11-30T02:23:27.345Z,33.81
2022-11-30T02:24:17.055Z,33.38
2022-11-30T02:24:48.625Z,33.35
2022-11-30T02:25:20.268Z,33.69
2022-11-30T02:25:51.661Z,33.50
2022-11-30T02:26:23.000Z,33.56
2022-11-30T02:27:03.548Z,33.58
2022-11-30T02:27:40.612Z,33.58
2022-11-30T02:28:17.809Z,33.51
2022-11-30T02:29:07.614Z,33.84
2022-11-30T02:29:55.523Z,33.63
2022-11-30T02:30:26.845Z,33.41
2022-11-30T02:30:58.247Z,33.79
2022-11-30T02:31:35.554Z,33.58
2022-11-30T02:32:08.569Z,33.56
2022-11-30T02:32:42.174Z,33.65
2022-11-30T02:33:14.692Z,33.52
2022-11-30T02:33:46.017Z,33.71
2022-11-30T02:34:17.519Z,33.49
2022-11-30T02:34:49.307Z,33.49
2022-11-30T02:35:21.662Z,33.67
2022-11-30T02:35:55.256Z,33.45
2022-11-30T02:36:26.961Z,33.63
2022-11-30T02:36:58.509Z,33.65
2022-11-30T02:37:29.841Z,33.56
2022-11-30T02:38:01.234Z,33.33
2022-11-30T02:38:32.590Z,33.44
2022-11-30T02:39:04.278Z,33.49
2022-11-30T02:39:35.641Z,33.60
2022-11-30T02:40:10.407Z,33.52
2022-11-30T02:40:41.755Z,33.47
2022-11-30T02:41:13.348Z,33.53
2022-11-30T02:41:44.715Z,33.50
2022-11-30T02:42:16.173Z,33.53
2022-11-30T02:42:47.927Z,33.38
2022-11-30T02:43:22.654Z,33.55
2022-11-30T02:43:54.057Z,33.51
2022-11-30T02:44:25.543Z,33.59
2022-11-30T02:44:56.899Z,33.55
2022-11-30T02:45:30.500Z,33.50
2022-11-30T02:46:02.155Z,33.72
2022-11-30T02:46:39.920Z,33.47
2022-11-30T02:47:11.517Z,33.42
2022-11-30T02:47:42.970Z,33.30
2022-11-30T02:48:14.856Z,33.52
2022-11-30T02:48:49.054Z,33.56
2022-11-30T02:49:26.674Z,33.38
2022-11-30T02:50:07.022Z,33.49
2022-11-30T02:50:42.602Z,33.49
2022-11-30T02:51:14.488Z,33.63
2022-11-30T02:51:45.850Z,33.72
2022-11-30T02:52:17.244Z,33.46
2022-11-30T02:52:49.337Z,33.92
2022-11-30T02:53:20.711Z,33.51
2022-11-30T02:53:52.068Z,33.61
2022-11-30T02:54:23.648Z,33.66
2022-11-30T02:55:20.952Z,33.47
2022-11-30T02:55:53.248Z,33.63
2022-11-30T02:56:24.639Z,33.52
2022-11-30T02:56:55.981Z,33.63
2022-11-30T02:57:27.389Z,33.63
2022-11-30T02:57:58.736Z,33.72
2022-11-30T02:58:30.119Z,33.32
2022-11-30T02:59:01.498Z,33.52
2022-11-30T02:59:33.046Z,33.52
2022-11-30T03:00:05.301Z,33.72
2022-11-30T03:00:36.652Z,33.74
2022-11-30T03:01:08.119Z,33.39
2022-11-30T03:01:39.648Z,33.69
2022-11-30T03:02:11.073Z,33.41
2022-11-30T03:02:42.560Z,33.92
2022-11-30T03:03:13.987Z,33.85
2022-11-30T03:03:45.306Z,33.70
2022-11-30T03:04:16.633Z,33.73
2022-11-30T03:04:48.130Z,33.47
2022-11-30T03:05:19.620Z,33.46
2022-11-30T03:05:51.476Z,33.30
2022-11-30T03:06:22.855Z,33.34
2022-11-30T03:06:54.158Z,33.54
2022-11-30T03:07:25.526Z,33.62
2022-11-30T03:07:56.942Z,33.46
2022-11-30T03:08:28.332Z,33.46
2022-11-30T03:08:59.712Z,33.33
2022-11-30T03:09:31.044Z,33.49
2022-11-30T03:10:02.376Z,33.51
2022-11-30T03:10:33.734Z,33.19
2022-11-30T03:11:05.350Z,33.18
2022-11-30T03:11:36.718Z,33.40
2022-11-30T03:12:08.072Z,33.51
2022-11-30T03:12:39.381Z,33.49
2022-11-30T03:13:10.799Z,33.45
2022-11-30T03:13:42.174Z,33.54
2022-11-30T03:14:13.543Z,33.14
2022-11-30T03:14:45.160Z,33.33
2022-11-30T03:15:16.956Z,33.24
2022-11-30T03:15:48.419Z,33.30
2022-11-30T03:16:19.813Z,33.33
2022-11-30T03:16:51.211Z,33.36
2022-11-30T03:17:22.579Z,33.40
2022-11-30T03:17:53.971Z,33.35
2022-11-30T03:18:25.361Z,33.38
2022-11-30T03:18:59.642Z,33.37
2022-11-30T03:19:30.964Z,33.32
2022-11-30T03:20:02.322Z,33.15
2022-11-30T03:20:33.711Z,33.22
2022-11-30T03:21:08.199Z,33.17
2022-11-30T03:21:39.569Z,33.44
2022-11-30T03:22:10.908Z,33.44
2022-11-30T03:22:42.302Z,33.27
2022-11-30T03:23:13.662Z,33.17
2022-11-30T03:23:45.023Z,33.26
2022-11-30T03:24:16.351Z,33.26
2022-11-30T03:24:47.989Z,33.23
2022-11-30T03:25:19.546Z,33.12
2022-11-30T03:25:50.887Z,33.07
2022-11-30T03:26:22.238Z,33.36
2022-11-30T03:26:53.637Z,33.35
2022-11-30T03:27:24.991Z,33.32
2022-11-30T03:27:56.425Z,33.16
2022-11-30T03:28:27.774Z,33.28
2022-11-30T03:28:59.127Z,33.54
2022-11-30T03:29:30.556Z,33.30
2022-11-30T03:30:01.922Z,33.42
2022-11-30T03:30:33.348Z,33.17
2022-11-30T03:31:04.743Z,33.37
2022-11-30T03:31:36.087Z,33.23
2022-11-30T03:32:07.469Z,33.11
2022-11-30T03:32:38.855Z,33.36
2022-11-30T03:33:10.193Z,33.54
2022-11-30T03:34:12.847Z,33.07
2022-11-30T03:34:44.457Z,33.28
2022-11-30T03:35:16.050Z,33.51
2022-11-30T03:35:47.432Z,33.28
2022-11-30T03:36:18.763Z,33.46
2022-11-30T03:36:50.141Z,33.37
2022-11-30T03:37:21.632Z,33.25
2022-11-30T03:37:52.931Z,33.43
2022-11-30T03:38:24.282Z,33.38
2022-11-30T03:38:55.678Z,33.04
2022-11-30T03:39:27.062Z,33.07
2022-11-30T03:39:58.676Z,33.12
2022-11-30T03:40:30.046Z,33.35
2022-11-30T03:41:11.361Z,33.20
2022-11-30T03:41:42.726Z,33.02
2022-11-30T03:42:14.117Z,33.24
2022-11-30T03:43:17.027Z,33.04
2022-11-30T03:43:48.418Z,33.11
2022-11-30T03:44:19.762Z,33.41
2022-11-30T03:44:51.493Z,33.12
2022-11-30T03:45:22.867Z,33.40
2022-11-30T03:45:54.417Z,32.94
2022-11-30T03:46:25.806Z,32.93
2022-11-30T03:46:57.305Z,33.04
2022-11-30T03:47:28.682Z,33.32
2022-11-30T03:48:00.150Z,33.45
2022-11-30T03:48:31.657Z,33.28
2022-11-30T03:49:03.184Z,33.27
2022-11-30T03:49:34.542Z,33.45
2022-11-30T03:50:06.322Z,33.17
2022-11-30T03:50:37.685Z,32.96
2022-11-30T03:51:09.480Z,33.30
2022-11-30T03:51:40.923Z,33.23
2022-11-30T03:52:12.291Z,33.64
2022-11-30T03:52:43.694Z,33.50
2022-11-30T03:53:15.549Z,33.33
2022-11-30T03:53:47.101Z,33.31
2022-11-30T03:54:18.540Z,33.21
2022-11-30T03:54:49.971Z,33.11
2022-11-30T03:55:21.390Z,33.02
2022-11-30T03:55:56.436Z,33.02
2022-11-30T03:56:27.756Z,33.43
2022-11-30T03:56:59.116Z,33.16
2022-11-30T03:57:30.447Z,33.33
2022-11-30T03:58:01.906Z,33.05
2022-11-30T03:58:33.287Z,33.25
2022-11-30T03:59:04.630Z,33.48
2022-11-30T03:59:35.951Z,33.01
2022-11-30T04:00:07.676Z,33.16
2022-11-30T04:00:39.126Z,33.33
2022-11-30T04:01:11.854Z,33.08
2022-11-30T04:01:43.251Z,33.24
2022-11-30T04:02:14.561Z,33.04
2022-11-30T04:02:45.899Z,33.06
2022-11-30T04:03:17.463Z,33.02
2022-11-30T04:03:49.270Z,32.92
2022-11-30T04:04:20.641Z,33.38
2022-11-30T04:04:52.008Z,33.07
2022-11-30T04:05:23.390Z,32.77
2022-11-30T04:05:54.749Z,32.82
2022-11-30T04:06:26.042Z,33.12
2022-11-30T04:06:57.423Z,32.96
2022-11-30T04:07:28.918Z,32.89
2022-11-30T04:08:00.363Z,32.83
2022-11-30T04:08:32.006Z,33.04
2022-11-30T04:09:03.502Z,33.05
2022-11-30T04:09:34.960Z,32.89
2022-11-30T04:10:08.575Z,32.75
2022-11-30T04:10:40.219Z,32.61
2022-11-30T04:11:11.586Z,32.75
2022-11-30T04:11:43.031Z,32.93
2022-11-30T04:12:14.548Z,32.84
2022-11-30T04:12:45.877Z,32.83
2022-11-30T04:13:17.341Z,32.93
2022-11-30T04:13:48.679Z,32.98
2022-11-30T04:14:20.100Z,32.66
2022-11-30T04:14:51.416Z,32.70
2022-11-30T04:15:22.877Z,32.88
2022-11-30T04:15:54.494Z,32.85
2022-11-30T04:16:25.955Z,33.06
2022-11-30T04:16:57.276Z,32.96
2022-11-30T04:17:28.788Z,32.89
2022-11-30T04:18:00.184Z,32.89
2022-11-30T04:18:31.890Z,32.72
2022-11-30T04:19:03.219Z,32.59
2022-11-30T04:20:06.538Z,33.00
2022-11-30T04:20:40.565Z,32.56
2022-11-30T04:21:12.318Z,32.64
2022-11-30T04:21:43.688Z,32.78
2022-11-30T04:22:15.089Z,33.03
2022-11-30T04:22:46.648Z,32.79
2022-11-30T04:23:18.065Z,32.60
2022-11-30T04:23:49.422Z,32.86
2022-11-30T04:24:20.946Z,32.84
2022-11-30T04:24:52.254Z,32.78
2022-11-30T04:25:23.813Z,32.42
2022-11-30T04:25:55.186Z,32.54
2022-11-30T04:26:26.680Z,32.63
2022-11-30T04:26:58.189Z,32.59
2022-11-30T04:27:29.616Z,32.71
2022-11-30T04:28:00.967Z,32.71
2022-11-30T04:28:32.400Z,32.31
2022-11-30T04:29:04.784Z,32.66
2022-11-30T04:29:36.320Z,32.35
2022-11-30T04:30:08.026Z,32.39
2022-11-30T04:30:39.529Z,32.78
2022-11-30T04:31:11.014Z,32.39
2022-11-30T04:31:42.477Z,32.40
2022-11-30T04:32:14.053Z,32.47
2022-11-30T04:32:45.518Z,32.53
2022-11-30T04:33:17.011Z,32.71
2022-11-30T04:33:48.350Z,32.51
2022-11-30T04:34:19.705Z,32.37
2022-11-30T04:34:51.103Z,32.47
2022-11-30T04:35:22.494Z,32.51
2022-11-30T04:35:54.950Z,32.59
2022-11-30T04:36:26.332Z,32.33
2022-11-30T04:37:00.431Z,32.65
2022-11-30T04:37:32.071Z,32.46
2022-11-30T04:38:03.587Z,32.51
2022-11-30T04:38:35.925Z,32.59
2022-11-30T04:39:07.257Z,32.38
2022-11-30T04:39:38.664Z,32.40
2022-11-30T04:40:10.286Z,32.41
2022-11-30T04:40:41.929Z,32.53
2022-11-30T04:41:13.312Z,32.49
2022-11-30T04:41:44.655Z,32.40
2022-11-30T04:42:16.012Z,32.52
2022-11-30T04:42:47.434Z,32.57
2022-11-30T04:43:18.814Z,32.35
2022-11-30T04:43:50.325Z,32.27
2022-11-30T04:44:21.670Z,32.65
2022-11-30T04:44:53.029Z,32.39
2022-11-30T04:45:24.422Z,32.54
2022-11-30T04:45:55.891Z,32.46
2022-11-30T04:46:27.294Z,32.53
2022-11-30T04:46:58.841Z,32.34
2022-11-30T04:47:30.494Z,32.67
2022-11-30T04:48:02.066Z,32.58
2022-11-30T04:48:33.395Z,32.32
2022-11-30T04:49:04.711Z,32.29
2022-11-30T04:49:36.273Z,32.56
2022-11-30T04:50:07.716Z,32.50
2022-11-30T04:50:39.081Z,32.68
2022-11-30T04:51:10.460Z,32.54
2022-11-30T04:51:41.830Z,32.51
2022-11-30T04:52:13.232Z,32.30
2022-11-30T04:52:44.668Z,32.30
2022-11-30T04:53:16.106Z,32.64
2022-11-30T04:53:47.515Z,32.53
2022-11-30T04:54:18.942Z,32.49
2022-11-30T04:54:50.529Z,32.21
2022-11-30T04:55:21.866Z,32.44
2022-11-30T04:55:53.243Z,32.48
2022-11-30T04:56:24.685Z,32.43
2022-11-30T04:56:56.058Z,32.47
2022-11-30T04:57:27.467Z,32.24
2022-11-30T04:57:58.888Z,32.45
2022-11-30T04:58:30.249Z,32.37
2022-11-30T04:59:01.936Z,32.33
2022-11-30T04:59:33.329Z,32.47
2022-11-30T05:00:05.518Z,32.38
2022-11-30T05:00:37.078Z,32.37
2022-11-30T05:01:39.644Z,32.50
2022-11-30T05:02:11.066Z,32.35
2022-11-30T05:02:45.323Z,32.34
2022-11-30T05:03:19.063Z,32.22
2022-11-30T05:03:50.431Z,32.45
2022-11-30T05:04:21.771Z,32.26
2022-11-30T05:04:53.205Z,32.34
2022-11-30T05:05:24.620Z,32.53
2022-11-30T05:05:55.999Z,32.38
2022-11-30T05:06:27.404Z,32.40
2022-11-30T05:06:58.758Z,32.47
2022-11-30T05:07:30.156Z,32.44
2022-11-30T05:08:01.720Z,32.23
2022-11-30T05:08:33.160Z,32.14
2022-11-30T05:09:04.519Z,32.15
2022-11-30T05:09:35.923Z,32.17
2022-11-30T05:10:07.583Z,32.15
2022-11-30T05:10:39.015Z,32.23
2022-11-30T05:11:10.450Z,32.28
2022-11-30T05:11:41.786Z,32.03
2022-11-30T05:12:13.123Z,32.02
2022-11-30T05:12:44.497Z,32.34
2022-11-30T05:13:15.917Z,32.37
2022-11-30T05:13:47.248Z,32.12
2022-11-30T05:14:18.702Z,32.32
2022-11-30T05:14:50.144Z,32.00
2022-11-30T05:15:21.508Z,32.28
2022-11-30T05:15:52.941Z,32.27
2022-11-30T05:16:24.361Z,32.08
2022-11-30T05:16:55.779Z,32.21
2022-11-30T05:17:27.138Z,32.19
2022-11-30T05:17:59.057Z,32.30
2022-11-30T05:18:30.463Z,32.02
2022-11-30T05:19:01.867Z,32.06
2022-11-30T05:19:33.236Z,32.45
2022-11-30T05:20:04.884Z,32.15
2022-11-30T05:20:36.246Z,32.23
2022-11-30T05:21:07.637Z,32.14
2022-11-30T05:21:44.061Z,32.16
2022-11-30T05:22:17.036Z,32.00
2022-11-30T05:22:48.732Z,31.90
2022-11-30T05:23:20.183Z,32.12
2022-11-30T05:23:51.535Z,32.08
2022-11-30T05:24:22.906Z,32.36
2022-11-30T05:24:54.276Z,32.10
2022-11-30T05:25:25.580Z,32.21
2022-11-30T05:25:56.886Z,32.21
2022-11-30T05:26:28.215Z,32.28
2022-11-30T05:26:59.535Z,32.26
2022-11-30T05:27:30.861Z,32.06
2022-11-30T05:28:02.196Z,32.10
2022-11-30T05:28:33.646Z,31.93
2022-11-30T05:29:05.093Z,32.24
2022-11-30T05:29:36.499Z,31.92
2022-11-30T05:30:08.176Z,32.02
2022-11-30T05:30:39.989Z,32.19
2022-11-30T05:31:11.383Z,32.27
2022-11-30T05:31:42.765Z,31.99
2022-11-30T05:32:14.105Z,31.96
2022-11-30T05:32:45.468Z,32.06
2022-11-30T05:33:16.871Z,32.08
2022-11-30T05:33:51.589Z,32.00
2022-11-30T05:34:22.997Z,32.05
2022-11-30T05:34:54.589Z,32.03
2022-11-30T05:35:26.270Z,32.01
2022-11-30T05:35:57.647Z,32.06
2022-11-30T05:36:29.025Z,32.08
2022-11-30T05:37:00.369Z,32.18
2022-11-30T05:37:31.762Z,32.27
2022-11-30T05:38:03.196Z,32.22
2022-11-30T05:38:34.558Z,32.00
2022-11-30T05:39:05.842Z,31.85
2022-11-30T05:39:37.193Z,32.00
2022-11-30T05:40:08.898Z,32.14
2022-11-30T05:40:40.248Z,31.88
2022-11-30T05:41:11.606Z,31.81
2022-11-30T05:41:42.976Z,31.84
2022-11-30T05:42:14.349Z,31.98
2022-11-30T05:42:45.709Z,32.06
2022-11-30T05:43:17.056Z,32.00
2022-11-30T05:43:48.483Z,31.87
2022-11-30T05:44:19.920Z,32.05
2022-11-30T05:44:51.342Z,31.99
2022-11-30T05:45:22.807Z,32.01
2022-11-30T05:46:00.497Z,32.29
2022-11-30T05:46:31.936Z,32.08
2022-11-30T05:47:03.421Z,32.17
2022-11-30T05:47:34.881Z,32.10
2022-11-30T05:48:06.219Z,31.98
2022-11-30T05:48:37.609Z,32.13
2022-11-30T05:49:09.048Z,32.10
2022-11-30T05:49:40.397Z,32.05
2022-11-30T05:50:11.700Z,32.13
2022-11-30T05:50:42.997Z,31.90
2022-11-30T05:51:14.984Z,32.06
2022-11-30T05:51:46.321Z,31.89
2022-11-30T05:52:17.650Z,32.04
2022-11-30T05:52:48.990Z,32.13
2022-11-30T05:53:20.376Z,31.90
2022-11-30T05:53:51.756Z,31.90
2022-11-30T05:54:23.193Z,32.01
2022-11-30T05:54:54.612Z,32.01
2022-11-30T05:55:26.010Z,31.89
2022-11-30T05:55:57.450Z,31.79
2022-11-30T05:56:28.761Z,31.91
2022-11-30T05:57:00.115Z,31.69
2022-11-30T05:57:31.417Z,32.06
2022-11-30T05:58:02.777Z,32.08
2022-11-30T05:58:34.106Z,32.08
2022-11-30T05:59:05.467Z,32.19
2022-11-30T05:59:36.880Z,31.92
2022-11-30T06:00:08.858Z,31.91
2022-11-30T06:00:40.183Z,32.15
2022-11-30T06:01:18.438Z,31.66
2022-11-30T06:01:51.534Z,32.01
2022-11-30T06:02:27.939Z,31.82
2022-11-30T06:02:59.707Z,31.94
2022-11-30T06:03:31.636Z,31.83
2022-11-30T06:04:08.927Z,31.65
2022-11-30T06:04:40.542Z,31.83
2022-11-30T06:05:11.876Z,31.74
2022-11-30T06:05:43.304Z,31.88
2022-11-30T06:06:14.731Z,31.64
2022-11-30T06:06:46.073Z,31.93
2022-11-30T06:07:17.469Z,31.92
2022-11-30T06:07:48.902Z,31.96
2022-11-30T06:08:20.251Z,31.75
2022-11-30T06:08:51.634Z,32.02
2022-11-30T06:09:23.088Z,32.09
2022-11-30T06:09:54.450Z,32.08
2022-11-30T06:10:25.778Z,31.77
2022-11-30T06:10:59.679Z,31.66
2022-11-30T06:11:31.039Z,31.88
2022-11-30T06:12:02.477Z,32.07
2022-11-30T06:12:33.867Z,31.74
2022-11-30T06:13:36.472Z,31.69
2022-11-30T06:14:07.931Z,31.85
2022-11-30T06:14:39.315Z,31.60
2022-11-30T06:15:10.932Z,31.66
2022-11-30T06:15:42.321Z,31.76
2022-11-30T06:16:13.775Z,31.79
2022-11-30T06:16:45.686Z,32.03
2022-11-30T06:17:17.109Z,31.58
2022-11-30T06:17:48.424Z,31.75
2022-11-30T06:18:19.762Z,31.82
2022-11-30T06:18:51.144Z,31.68
2022-11-30T06:19:53.789Z,31.69
2022-11-30T06:20:25.142Z,31.76
2022-11-30T06:21:03.170Z,31.78
2022-11-30T06:21:34.541Z,31.87
2022-11-30T06:22:05.912Z,31.87
2022-11-30T06:22:37.234Z,31.59
2022-11-30T06:23:08.566Z,31.80
2022-11-30T06:23:39.961Z,31.88
2022-11-30T06:24:11.381Z,31.72
2022-11-30T06:25:14.171Z,31.61
2022-11-30T06:25:45.598Z,31.88
2022-11-30T06:26:16.979Z,31.88
2022-11-30T06:26:48.408Z,31.94
2022-11-30T06:28:22.318Z,31.68
2022-11-30T06:28:53.684Z,31.95
2022-11-30T06:29:25.066Z,31.82
2022-11-30T06:29:56.438Z,31.79
2022-11-30T06:30:27.880Z,31.88
2022-11-30T06:30:59.807Z,31.76
2022-11-30T06:31:31.579Z,31.55
2022-11-30T06:32:03.169Z,31.79
2022-11-30T06:32:34.605Z,31.70
2022-11-30T06:33:05.945Z,31.82
2022-11-30T06:33:37.426Z,31.51
2022-11-30T06:34:08.810Z,31.98
2022-11-30T06:34:40.149Z,31.67
2022-11-30T06:35:11.469Z,31.91
2022-11-30T06:36:14.170Z,31.49
2022-11-30T06:36:45.542Z,31.61
2022-11-30T06:37:16.961Z,31.52
2022-11-30T06:37:48.371Z,31.81
2022-11-30T06:38:19.749Z,31.68
2022-11-30T06:39:43.054Z,31.77
2022-11-30T06:40:44.919Z,31.90
2022-11-30T06:41:16.363Z,31.67
2022-11-30T06:41:53.004Z,31.80
2022-11-30T06:42:25.758Z,31.91
2022-11-30T06:42:57.142Z,31.93
2022-11-30T06:43:32.008Z,31.67
2022-11-30T06:44:07.361Z,31.66
2022-11-30T06:44:38.714Z,31.90
2022-11-30T06:45:10.204Z,32.01
2022-11-30T06:45:45.155Z,31.81
2022-11-30T06:46:16.650Z,31.54
2022-11-30T06:46:48.075Z,31.71
2022-11-30T06:47:19.478Z,31.50
2022-11-30T06:47:50.854Z,31.80
2022-11-30T06:48:22.215Z,31.52
2022-11-30T06:48:53.612Z,31.80
2022-11-30T06:49:56.209Z,31.81
2022-11-30T06:50:27.506Z,31.78
2022-11-30T06:50:58.860Z,32.03
2022-11-30T06:51:30.187Z,31.95
2022-11-30T06:52:01.630Z,31.64
2022-11-30T06:53:04.231Z,32.00
2022-11-30T06:53:35.631Z,31.58
2022-11-30T06:54:07.034Z,31.78
2022-11-30T06:54:38.378Z,31.81
2022-11-30T06:55:09.706Z,31.75
2022-11-30T06:55:41.012Z,31.51
2022-11-30T06:56:12.462Z,31.66
2022-11-30T06:56:43.830Z,31.51
2022-11-30T06:57:15.242Z,31.55
2022-11-30T06:57:46.567Z,31.65
2022-11-30T06:58:17.940Z,31.56
2022-11-30T06:58:49.284Z,31.72
2022-11-30T06:59:20.628Z,31.52
2022-11-30T07:00:23.265Z,31.79
2022-11-30T07:00:54.720Z,31.49
2022-11-30T07:01:26.163Z,31.49
2022-11-30T07:02:28.792Z,31.76
2022-11-30T07:03:00.219Z,31.55
2022-11-30T07:03:31.622Z,31.49